Memorial Village's Hourly Summary for Sunday, May 13, 2018
Hour Temp
(f)
RH
(%)
Solar Rad.
(MJ/m2)
Rainfall
(in)
Wind
(mph)
5/13/2018 12:00 AM 76 86 0 0 0.32
5/13/2018 1:00 AM 75 89 0 0 0.06
5/13/2018 2:00 AM 75 90 0 0 0.06
5/13/2018 3:00 AM 74 91 0 0 0
5/13/2018 4:00 AM 74 92 0 0 0
5/13/2018 5:00 AM 73 95 0 0 0
5/13/2018 6:00 AM 72 96 0.02 0 0
5/13/2018 7:00 AM 74 89 0.2 0 0.05
5/13/2018 8:00 AM 77 79 0.45 0 0.59
5/13/2018 9:00 AM 81 68 1.13 0 1.9
5/13/2018 10:00 AM 85 57 2.25 0 1.49
5/13/2018 11:00 AM 88 51 2.6 0 1.09
5/13/2018 12:00 PM 89 47 2.47 0 1.52
5/13/2018 1:00 PM 90 43 2.93 0 1.7
5/13/2018 2:00 PM 91 43 2.33 0 1.82
5/13/2018 3:00 PM 90 44 2.2 0 2.06
5/13/2018 4:00 PM 90 44 1.94 0 2.23
5/13/2018 5:00 PM 89 47 1.73 0 1.88
5/13/2018 6:00 PM 86 52 0.78 0 1.7
5/13/2018 7:00 PM 83 56 0.1 0 1.28
5/13/2018 8:00 PM 80 66 0 0 1.3
5/13/2018 9:00 PM 79 74 0 0 0.93
5/13/2018 10:00 PM 78 79 0 0 0.59
5/13/2018 11:00 PM 77 82 0 0 0.9
Data Summary 81 69 21.13 0.00 0.98